DLH9DR EDDL-EGNT
Flight info
| Callsign | DLH9DR |
|---|---|
| Flight time | 1h 16m |
| Altitude | 38000 |
| Route | SONEB8T/23L SONEB P64 TENLI L602 SPY DCT MIMVA L602 NALAX L46 RIMTO |
| Aircraft | A320/M-SDE3FGHIRWY/LB1 |
Departure
| Time | 2026-05-04 18:37 |
|---|---|
| Airport | Düsseldorf Airport (EDDL) |
Arrival
| Time | 2026-05-04 19:54 |
|---|---|
| Airport | Newcastle International Airport (EGNT) |
| Time | Latitude | Longitude | Altitude | Speed | Heading |
|---|---|---|---|---|---|
| 2026-05-04 17:57 | 51.28255 | 6.76693 | 124 ft | 0 kts | 201° |
| 2026-05-04 17:58 | 51.28270 | 6.76673 | 127 ft | 0 kts | 225° |
| 2026-05-04 18:23 | 51.28276 | 6.76682 | 121 ft | 4 kts | 227° |
| 2026-05-04 18:23 | 51.28292 | 6.76714 | 127 ft | 4 kts | 238° |
| 2026-05-04 18:23 | 51.28304 | 6.76752 | 123 ft | 4 kts | 248° |
| 2026-05-04 18:23 | 51.28314 | 6.76793 | 125 ft | 3 kts | 252° |
| 2026-05-04 18:24 | 51.28320 | 6.76825 | 124 ft | 4 kts | 253° |
| 2026-05-04 18:24 | 51.28328 | 6.76866 | 126 ft | 4 kts | 253° |
| 2026-05-04 18:24 | 51.28336 | 6.76907 | 125 ft | 4 kts | 246° |
| 2026-05-04 18:24 | 51.28346 | 6.76937 | 125 ft | 3 kts | 232° |
| 2026-05-04 18:25 | 51.28362 | 6.76971 | 125 ft | 4 kts | 233° |
| 2026-05-04 18:25 | 51.28366 | 6.76978 | 125 ft | 0 kts | 233° |
| 2026-05-04 18:27 | 51.28362 | 6.76969 | 125 ft | 5 kts | 233° |
| 2026-05-04 18:27 | 51.28361 | 6.76885 | 128 ft | 10 kts | 305° |
| 2026-05-04 18:27 | 51.28432 | 6.76792 | 124 ft | 16 kts | 321° |
| 2026-05-04 18:28 | 51.28511 | 6.76819 | 127 ft | 12 kts | 51° |
| 2026-05-04 18:28 | 51.28559 | 6.76920 | 126 ft | 14 kts | 54° |
| 2026-05-04 18:28 | 51.28620 | 6.77049 | 127 ft | 13 kts | 53° |
| 2026-05-04 18:28 | 51.28691 | 6.77197 | 128 ft | 22 kts | 53° |
| 2026-05-04 18:29 | 51.28797 | 6.77419 | 127 ft | 27 kts | 53° |
| 2026-05-04 18:29 | 51.28913 | 6.77662 | 128 ft | 28 kts | 53° |
| 2026-05-04 18:29 | 51.29033 | 6.77915 | 128 ft | 29 kts | 52° |
| 2026-05-04 18:29 | 51.29137 | 6.78133 | 134 ft | 21 kts | 52° |
| 2026-05-04 18:30 | 51.29234 | 6.78333 | 141 ft | 6 kts | 53° |
| 2026-05-04 18:30 | 51.29275 | 6.78423 | 145 ft | 14 kts | 53° |
| 2026-05-04 18:30 | 51.29334 | 6.78541 | 150 ft | 11 kts | 41° |
| 2026-05-04 18:31 | 51.29387 | 6.78573 | 152 ft | 7 kts | 2° |
| 2026-05-04 18:31 | 51.29431 | 6.78568 | 152 ft | 5 kts | 354° |
| 2026-05-04 18:31 | 51.29439 | 6.78567 | 152 ft | 0 kts | 354° |
| 2026-05-04 18:31 | 51.29441 | 6.78567 | 152 ft | 2 kts | 354° |
| 2026-05-04 18:32 | 51.29486 | 6.78558 | 152 ft | 8 kts | 347° |
| 2026-05-04 18:32 | 51.29518 | 6.78491 | 151 ft | 8 kts | 276° |
| 2026-05-04 18:32 | 51.29497 | 6.78424 | 149 ft | 0 kts | 232° |
| 2026-05-04 18:36 | 51.29495 | 6.78420 | 149 ft | 3 kts | 232° |
| 2026-05-04 18:36 | 51.29374 | 6.78171 | 142 ft | 66 kts | 233° |
| 2026-05-04 18:37 | 51.28953 | 6.77284 | 125 ft | 131 kts | 232° |
| 2026-05-04 18:37 | 51.28310 | 6.75923 | 265 ft | 167 kts | 232° |
| 2026-05-04 18:37 | 51.27587 | 6.74386 | 753 ft | 183 kts | 229° |
| 2026-05-04 18:37 | 51.26728 | 6.72585 | 814 ft | 223 kts | 239° |
| 2026-05-04 18:38 | 51.26447 | 6.70241 | 805 ft | 215 kts | 281° |
| 2026-05-04 18:38 | 51.27225 | 6.68317 | 802 ft | 206 kts | 323° |
| 2026-05-04 18:38 | 51.28538 | 6.67682 | 834 ft | 201 kts | 7° |
| 2026-05-04 18:38 | 51.29945 | 6.68201 | 1268 ft | 219 kts | 18° |
| 2026-05-04 18:39 | 51.31495 | 6.68911 | 1696 ft | 244 kts | 11° |
| 2026-05-04 18:39 | 51.33249 | 6.69276 | 2299 ft | 261 kts | 4° |
| 2026-05-04 18:39 | 51.35087 | 6.69449 | 3210 ft | 266 kts | 2° |
| 2026-05-04 18:39 | 51.36952 | 6.69568 | 4147 ft | 270 kts | 1° |
| 2026-05-04 18:40 | 51.38853 | 6.69685 | 5068 ft | 274 kts | 1° |
| 2026-05-04 18:40 | 51.40773 | 6.69720 | 5994 ft | 278 kts | 360° |
| 2026-05-04 18:40 | 51.42719 | 6.69697 | 6884 ft | 281 kts | 359° |
| 2026-05-04 18:40 | 51.44683 | 6.69659 | 7740 ft | 284 kts | 360° |
| 2026-05-04 18:41 | 51.46677 | 6.69627 | 8614 ft | 287 kts | 0° |
| 2026-05-04 18:41 | 51.48680 | 6.69607 | 9537 ft | 289 kts | 0° |
| 2026-05-04 18:41 | 51.50705 | 6.69601 | 10261 ft | 298 kts | 1° |
| 2026-05-04 18:41 | 51.52864 | 6.69605 | 10545 ft | 321 kts | 1° |
| 2026-05-04 18:42 | 51.55170 | 6.69613 | 10923 ft | 338 kts | 1° |
| 2026-05-04 18:42 | 51.57550 | 6.69619 | 11602 ft | 344 kts | 1° |
| 2026-05-04 18:42 | 51.59966 | 6.69623 | 12324 ft | 349 kts | 1° |
| 2026-05-04 18:42 | 51.61584 | 6.69629 | 12797 ft | 352 kts | 2° |
| 2026-05-04 18:43 | 51.64039 | 6.69962 | 13579 ft | 353 kts | 6° |
| 2026-05-04 18:43 | 51.67297 | 6.70514 | 14472 ft | 358 kts | 6° |
| 2026-05-04 18:43 | 51.69795 | 6.70935 | 15065 ft | 363 kts | 6° |
| 2026-05-04 18:43 | 51.71506 | 6.71222 | 15465 ft | 366 kts | 6° |
| 2026-05-04 18:44 | 51.74028 | 6.71642 | 15863 ft | 371 kts | 6° |
| 2026-05-04 18:44 | 51.75763 | 6.71931 | 15958 ft | 371 kts | 6° |
| 2026-05-04 18:44 | 51.79189 | 6.72502 | 16583 ft | 376 kts | 6° |
| 2026-05-04 18:44 | 51.81802 | 6.72941 | 17213 ft | 380 kts | 6° |
| 2026-05-04 18:45 | 51.84443 | 6.73385 | 17801 ft | 384 kts | 6° |
| 2026-05-04 18:45 | 51.87121 | 6.73833 | 18411 ft | 387 kts | 6° |
| 2026-05-04 18:45 | 51.89812 | 6.74282 | 18950 ft | 390 kts | 6° |
| 2026-05-04 18:45 | 51.92523 | 6.74734 | 19456 ft | 394 kts | 6° |
| 2026-05-04 18:46 | 51.95263 | 6.75187 | 19951 ft | 398 kts | 4° |
| 2026-05-04 18:46 | 51.98055 | 6.75071 | 20425 ft | 401 kts | 351° |
| 2026-05-04 18:46 | 52.00761 | 6.73964 | 20897 ft | 403 kts | 338° |
| 2026-05-04 18:46 | 52.03263 | 6.71905 | 21373 ft | 405 kts | 324° |
| 2026-05-04 18:47 | 52.05432 | 6.68986 | 21847 ft | 406 kts | 311° |
| 2026-05-04 18:47 | 52.07179 | 6.65388 | 22329 ft | 406 kts | 303° |
| 2026-05-04 18:47 | 52.08811 | 6.61620 | 22804 ft | 409 kts | 303° |
| 2026-05-04 18:47 | 52.10465 | 6.57812 | 23289 ft | 413 kts | 303° |
| 2026-05-04 18:48 | 52.12131 | 6.53984 | 23688 ft | 417 kts | 303° |
| 2026-05-04 18:48 | 52.13815 | 6.50117 | 24082 ft | 419 kts | 302° |
| 2026-05-04 18:48 | 52.15504 | 6.46228 | 24498 ft | 421 kts | 302° |
| 2026-05-04 18:48 | 52.17197 | 6.42315 | 24915 ft | 422 kts | 302° |
| 2026-05-04 18:49 | 52.18870 | 6.38441 | 25327 ft | 424 kts | 302° |
| 2026-05-04 18:49 | 52.20572 | 6.34493 | 25724 ft | 426 kts | 302° |
| 2026-05-04 18:49 | 52.22282 | 6.30524 | 26106 ft | 428 kts | 302° |
| 2026-05-04 18:49 | 52.23952 | 6.26491 | 26500 ft | 428 kts | 297° |
| 2026-05-04 18:50 | 52.25268 | 6.22157 | 26875 ft | 425 kts | 288° |
| 2026-05-04 18:50 | 52.26273 | 6.17604 | 27255 ft | 426 kts | 285° |
| 2026-05-04 18:50 | 52.27260 | 6.13042 | 27651 ft | 427 kts | 285° |
| 2026-05-04 18:50 | 52.28250 | 6.08459 | 28031 ft | 429 kts | 285° |
| 2026-05-04 18:51 | 52.29243 | 6.03855 | 28416 ft | 430 kts | 285° |
| 2026-05-04 18:51 | 52.30238 | 5.99231 | 28794 ft | 432 kts | 285° |
| 2026-05-04 18:51 | 52.31234 | 5.94596 | 29143 ft | 433 kts | 285° |
| 2026-05-04 18:51 | 52.32231 | 5.89929 | 29426 ft | 437 kts | 285° |
| 2026-05-04 18:52 | 52.33235 | 5.85206 | 29654 ft | 440 kts | 285° |
| 2026-05-04 18:52 | 52.34245 | 5.80448 | 29950 ft | 443 kts | 285° |
| 2026-05-04 18:52 | 52.35257 | 5.75681 | 30218 ft | 445 kts | 285° |
| 2026-05-04 18:52 | 52.36277 | 5.70880 | 30480 ft | 446 kts | 285° |
| 2026-05-04 18:53 | 52.37300 | 5.66068 | 30751 ft | 448 kts | 285° |
| 2026-05-04 18:53 | 52.38325 | 5.61241 | 31074 ft | 448 kts | 285° |
| 2026-05-04 18:53 | 52.39348 | 5.56423 | 31461 ft | 446 kts | 284° |
| 2026-05-04 18:53 | 52.40360 | 5.51630 | 31861 ft | 444 kts | 284° |
| 2026-05-04 18:54 | 52.41345 | 5.46919 | 32282 ft | 442 kts | 284° |
| 2026-05-04 18:54 | 52.42336 | 5.42156 | 32704 ft | 439 kts | 284° |
| 2026-05-04 18:54 | 52.43321 | 5.37413 | 33120 ft | 437 kts | 284° |
| 2026-05-04 18:54 | 52.44300 | 5.32707 | 33544 ft | 435 kts | 284° |
| 2026-05-04 18:55 | 52.45274 | 5.28021 | 33947 ft | 433 kts | 284° |
| 2026-05-04 18:55 | 52.47206 | 5.18706 | 34581 ft | 430 kts | 284° |
| 2026-05-04 18:55 | 52.48168 | 5.14054 | 34847 ft | 430 kts | 284° |
| 2026-05-04 18:56 | 52.49128 | 5.09390 | 35098 ft | 431 kts | 284° |
| 2026-05-04 18:56 | 52.50089 | 5.04720 | 35339 ft | 431 kts | 284° |
| 2026-05-04 18:56 | 52.51047 | 5.00051 | 35577 ft | 431 kts | 284° |
| 2026-05-04 18:56 | 52.51988 | 4.95442 | 35821 ft | 431 kts | 285° |
| 2026-05-04 18:57 | 52.52949 | 4.90709 | 36042 ft | 432 kts | 285° |
| 2026-05-04 18:57 | 52.53962 | 4.86116 | 36255 ft | 434 kts | 290° |
| 2026-05-04 18:57 | 52.55410 | 4.81659 | 36467 ft | 438 kts | 298° |
| 2026-05-04 18:57 | 52.57009 | 4.77396 | 36677 ft | 438 kts | 298° |
| 2026-05-04 18:58 | 52.58586 | 4.73174 | 36894 ft | 438 kts | 298° |
| 2026-05-04 18:58 | 52.60176 | 4.68895 | 37106 ft | 438 kts | 298° |
| 2026-05-04 18:58 | 52.61765 | 4.64599 | 37311 ft | 438 kts | 298° |
| 2026-05-04 18:58 | 52.63348 | 4.60305 | 37522 ft | 439 kts | 298° |
| 2026-05-04 18:59 | 52.64928 | 4.56013 | 37718 ft | 439 kts | 298° |
| 2026-05-04 18:59 | 52.66422 | 4.51948 | 37916 ft | 438 kts | 298° |
| 2026-05-04 18:59 | 52.69589 | 4.43316 | 38021 ft | 438 kts | 298° |
| 2026-05-04 19:00 | 52.72730 | 4.34726 | 38023 ft | 437 kts | 298° |
| 2026-05-04 19:00 | 52.75853 | 4.26176 | 38027 ft | 436 kts | 298° |
| 2026-05-04 19:01 | 52.78986 | 4.17568 | 38031 ft | 436 kts | 298° |
| 2026-05-04 19:01 | 52.82109 | 4.08956 | 38032 ft | 436 kts | 298° |
| 2026-05-04 19:02 | 52.85222 | 4.00338 | 38039 ft | 437 kts | 298° |
| 2026-05-04 19:02 | 52.88333 | 3.91694 | 38036 ft | 437 kts | 298° |
| 2026-05-04 19:03 | 52.91436 | 3.83040 | 38039 ft | 437 kts | 298° |
| 2026-05-04 19:03 | 52.94534 | 3.74368 | 38041 ft | 437 kts | 298° |
| 2026-05-04 19:04 | 52.97631 | 3.65671 | 38040 ft | 437 kts | 298° |
| 2026-05-04 19:04 | 53.00722 | 3.56953 | 38046 ft | 437 kts | 298° |
| 2026-05-04 19:05 | 53.03792 | 3.48278 | 38045 ft | 439 kts | 298° |
| 2026-05-04 19:05 | 53.06881 | 3.39518 | 38035 ft | 439 kts | 298° |
| 2026-05-04 19:06 | 53.09787 | 3.30620 | 38036 ft | 436 kts | 289° |
| 2026-05-04 19:06 | 53.11359 | 3.20926 | 38029 ft | 433 kts | 280° |
| 2026-05-04 19:07 | 53.12655 | 3.11110 | 38029 ft | 433 kts | 280° |
| 2026-05-04 19:07 | 53.13947 | 3.01308 | 38054 ft | 434 kts | 281° |
| 2026-05-04 19:08 | 53.15240 | 2.91453 | 38049 ft | 435 kts | 281° |
| 2026-05-04 19:08 | 53.16529 | 2.81601 | 38051 ft | 435 kts | 281° |
| 2026-05-04 19:09 | 53.17808 | 2.71714 | 38052 ft | 435 kts | 280° |
| 2026-05-04 19:09 | 53.19061 | 2.61899 | 38051 ft | 435 kts | 280° |
| 2026-05-04 19:10 | 53.20326 | 2.51966 | 38056 ft | 435 kts | 280° |
| 2026-05-04 19:10 | 53.21572 | 2.42137 | 38057 ft | 436 kts | 280° |
| 2026-05-04 19:11 | 53.22814 | 2.32217 | 38058 ft | 436 kts | 280° |
| 2026-05-04 19:11 | 53.24043 | 2.22284 | 38057 ft | 436 kts | 280° |
| 2026-05-04 19:12 | 53.25890 | 2.07379 | 38054 ft | 436 kts | 280° |
| 2026-05-04 19:13 | 53.27106 | 1.97441 | 38059 ft | 437 kts | 280° |
| 2026-05-04 19:13 | 53.28320 | 1.87475 | 38059 ft | 437 kts | 280° |
| 2026-05-04 19:14 | 53.29523 | 1.77509 | 38064 ft | 437 kts | 280° |
| 2026-05-04 19:14 | 53.30719 | 1.67526 | 38062 ft | 437 kts | 280° |
| 2026-05-04 19:15 | 53.31904 | 1.57544 | 38061 ft | 437 kts | 280° |
| 2026-05-04 19:15 | 53.33107 | 1.47565 | 38062 ft | 438 kts | 281° |
| 2026-05-04 19:16 | 53.34281 | 1.39305 | 38065 ft | 439 kts | 283° |
| 2026-05-04 19:16 | 53.35790 | 1.29408 | 38062 ft | 439 kts | 283° |
| 2026-05-04 19:17 | 53.37266 | 1.19484 | 38062 ft | 439 kts | 283° |
| 2026-05-04 19:17 | 53.38688 | 1.09512 | 38062 ft | 439 kts | 282° |
| 2026-05-04 19:18 | 53.40096 | 0.99545 | 38056 ft | 440 kts | 282° |
| 2026-05-04 19:18 | 53.41506 | 0.89567 | 38059 ft | 441 kts | 282° |
| 2026-05-04 19:19 | 53.42913 | 0.79548 | 38063 ft | 441 kts | 282° |
| 2026-05-04 19:19 | 53.44305 | 0.69545 | 38058 ft | 441 kts | 282° |
| 2026-05-04 19:20 | 53.45692 | 0.59513 | 38059 ft | 441 kts | 282° |
| 2026-05-04 19:20 | 53.47061 | 0.49547 | 38059 ft | 441 kts | 282° |
| 2026-05-04 19:21 | 53.48427 | 0.39491 | 38058 ft | 442 kts | 282° |
| 2026-05-04 19:21 | 53.49794 | 0.29410 | 38058 ft | 442 kts | 282° |
| 2026-05-04 19:22 | 53.51155 | 0.19327 | 38057 ft | 442 kts | 282° |
| 2026-05-04 19:22 | 53.52496 | 0.09240 | 38057 ft | 442 kts | 282° |
| 2026-05-04 19:23 | 53.53837 | -0.00851 | 38056 ft | 442 kts | 282° |
| 2026-05-04 19:23 | 53.55181 | -0.10961 | 37483 ft | 443 kts | 282° |
| 2026-05-04 19:23 | 53.55850 | -0.16040 | 36700 ft | 445 kts | 282° |
| 2026-05-04 19:24 | 53.56517 | -0.21153 | 35933 ft | 447 kts | 283° |
| 2026-05-04 19:24 | 53.57179 | -0.26274 | 35178 ft | 449 kts | 283° |
| 2026-05-04 19:24 | 53.57843 | -0.31436 | 34421 ft | 452 kts | 283° |
| 2026-05-04 19:24 | 53.58502 | -0.36554 | 33823 ft | 454 kts | 283° |
| 2026-05-04 19:25 | 53.59176 | -0.41766 | 33273 ft | 457 kts | 283° |
| 2026-05-04 19:25 | 53.59851 | -0.46999 | 32726 ft | 457 kts | 283° |
| 2026-05-04 19:25 | 53.60522 | -0.52222 | 32198 ft | 454 kts | 283° |
| 2026-05-04 19:25 | 53.61185 | -0.57409 | 31680 ft | 452 kts | 283° |
| 2026-05-04 19:26 | 53.61840 | -0.62563 | 31170 ft | 449 kts | 283° |
| 2026-05-04 19:26 | 53.62489 | -0.67696 | 30668 ft | 446 kts | 283° |
| 2026-05-04 19:26 | 53.63121 | -0.72725 | 30185 ft | 443 kts | 283° |
| 2026-05-04 19:26 | 53.63767 | -0.77861 | 29609 ft | 440 kts | 283° |
| 2026-05-04 19:27 | 53.64393 | -0.82877 | 29044 ft | 436 kts | 283° |
| 2026-05-04 19:27 | 53.65010 | -0.87852 | 28491 ft | 431 kts | 282° |
| 2026-05-04 19:27 | 53.65620 | -0.92788 | 27933 ft | 427 kts | 282° |
| 2026-05-04 19:27 | 53.66222 | -0.97666 | 27411 ft | 422 kts | 282° |
| 2026-05-04 19:28 | 53.66820 | -1.02500 | 26883 ft | 418 kts | 282° |
| 2026-05-04 19:28 | 53.67409 | -1.07279 | 26365 ft | 414 kts | 282° |
| 2026-05-04 19:28 | 53.67990 | -1.12017 | 25861 ft | 410 kts | 282° |
| 2026-05-04 19:28 | 53.68562 | -1.16713 | 25364 ft | 406 kts | 282° |
| 2026-05-04 19:29 | 53.69122 | -1.21354 | 25076 ft | 402 kts | 282° |
| 2026-05-04 19:29 | 53.69678 | -1.25986 | 25027 ft | 401 kts | 282° |
| 2026-05-04 19:29 | 53.70236 | -1.30605 | 25043 ft | 402 kts | 283° |
| 2026-05-04 19:29 | 53.71032 | -1.35127 | 25041 ft | 401 kts | 292° |
| 2026-05-04 19:30 | 53.72236 | -1.39381 | 25038 ft | 401 kts | 301° |
| 2026-05-04 19:30 | 53.73785 | -1.43204 | 25030 ft | 400 kts | 309° |
| 2026-05-04 19:30 | 53.75687 | -1.46617 | 25035 ft | 398 kts | 319° |
| 2026-05-04 19:30 | 53.77870 | -1.49481 | 25032 ft | 397 kts | 327° |
| 2026-05-04 19:31 | 53.80235 | -1.51912 | 25031 ft | 397 kts | 329° |
| 2026-05-04 19:31 | 53.82601 | -1.54321 | 25029 ft | 397 kts | 329° |
| 2026-05-04 19:31 | 53.84960 | -1.56733 | 24963 ft | 395 kts | 329° |
| 2026-05-04 19:31 | 53.87302 | -1.59138 | 24460 ft | 392 kts | 329° |
| 2026-05-04 19:32 | 53.89622 | -1.61530 | 23949 ft | 389 kts | 329° |
| 2026-05-04 19:32 | 53.91935 | -1.63914 | 23473 ft | 388 kts | 329° |
| 2026-05-04 19:32 | 53.94239 | -1.66294 | 22913 ft | 385 kts | 329° |
| 2026-05-04 19:32 | 53.96517 | -1.68648 | 22373 ft | 382 kts | 328° |
| 2026-05-04 19:33 | 53.98788 | -1.70989 | 21842 ft | 380 kts | 328° |
| 2026-05-04 19:33 | 54.01041 | -1.73308 | 21321 ft | 377 kts | 328° |
| 2026-05-04 19:33 | 54.03281 | -1.75616 | 20807 ft | 375 kts | 327° |
| 2026-05-04 19:33 | 54.05502 | -1.77911 | 20296 ft | 372 kts | 327° |
| 2026-05-04 19:34 | 54.07714 | -1.80201 | 19817 ft | 370 kts | 328° |
| 2026-05-04 19:34 | 54.09910 | -1.82462 | 19319 ft | 368 kts | 330° |
| 2026-05-04 19:34 | 54.12246 | -1.84243 | 18839 ft | 367 kts | 340° |
| 2026-05-04 19:34 | 54.14728 | -1.85255 | 18363 ft | 367 kts | 351° |
| 2026-05-04 19:35 | 54.17278 | -1.85474 | 17819 ft | 367 kts | 1° |
| 2026-05-04 19:35 | 54.19813 | -1.84922 | 17292 ft | 367 kts | 9° |
| 2026-05-04 19:35 | 54.22323 | -1.84128 | 16762 ft | 365 kts | 9° |
| 2026-05-04 19:35 | 54.24786 | -1.83357 | 16265 ft | 364 kts | 8° |
| 2026-05-04 19:36 | 54.27258 | -1.82586 | 16031 ft | 356 kts | 8° |
| 2026-05-04 19:36 | 54.29682 | -1.81829 | 16027 ft | 353 kts | 8° |
| 2026-05-04 19:36 | 54.32108 | -1.81072 | 16031 ft | 353 kts | 8° |
| 2026-05-04 19:36 | 54.34524 | -1.80317 | 16031 ft | 353 kts | 8° |
| 2026-05-04 19:37 | 54.36940 | -1.79558 | 16031 ft | 350 kts | 8° |
| 2026-05-04 19:37 | 54.39289 | -1.78817 | 16027 ft | 334 kts | 8° |
| 2026-05-04 19:37 | 54.41536 | -1.78104 | 15942 ft | 324 kts | 8° |
| 2026-05-04 19:37 | 54.43734 | -1.77406 | 15681 ft | 319 kts | 8° |
| 2026-05-04 19:38 | 54.45915 | -1.76713 | 15348 ft | 317 kts | 8° |
| 2026-05-04 19:38 | 54.48085 | -1.76022 | 15016 ft | 316 kts | 8° |
| 2026-05-04 19:38 | 54.50243 | -1.75332 | 14711 ft | 314 kts | 8° |
| 2026-05-04 19:38 | 54.52384 | -1.74650 | 14396 ft | 312 kts | 8° |
| 2026-05-04 19:39 | 54.54490 | -1.73981 | 14082 ft | 311 kts | 7° |
| 2026-05-04 19:39 | 54.56615 | -1.73305 | 13763 ft | 309 kts | 7° |
| 2026-05-04 19:39 | 54.58726 | -1.72634 | 13416 ft | 308 kts | 7° |
| 2026-05-04 19:39 | 54.60815 | -1.71968 | 13225 ft | 301 kts | 7° |
| 2026-05-04 19:40 | 54.62849 | -1.71317 | 13082 ft | 293 kts | 7° |
| 2026-05-04 19:40 | 54.64831 | -1.70682 | 12949 ft | 284 kts | 7° |
| 2026-05-04 19:40 | 54.66747 | -1.70068 | 12817 ft | 276 kts | 7° |
| 2026-05-04 19:40 | 54.68617 | -1.69471 | 12682 ft | 269 kts | 7° |
| 2026-05-04 19:41 | 54.70436 | -1.68977 | 12552 ft | 260 kts | 1° |
| 2026-05-04 19:41 | 54.72213 | -1.68745 | 12406 ft | 253 kts | 1° |
| 2026-05-04 19:41 | 54.73958 | -1.68515 | 12182 ft | 250 kts | 1° |
| 2026-05-04 19:41 | 54.75684 | -1.68283 | 11935 ft | 248 kts | 0° |
| 2026-05-04 19:42 | 54.77400 | -1.68051 | 11678 ft | 246 kts | 0° |
| 2026-05-04 19:42 | 54.79102 | -1.67820 | 11418 ft | 245 kts | 0° |
| 2026-05-04 19:42 | 54.80795 | -1.67589 | 11147 ft | 243 kts | 0° |
| 2026-05-04 19:42 | 54.82487 | -1.67359 | 10869 ft | 242 kts | 0° |
| 2026-05-04 19:43 | 54.84160 | -1.67134 | 10600 ft | 241 kts | 0° |
| 2026-05-04 19:43 | 54.85825 | -1.66907 | 10324 ft | 240 kts | 0° |
| 2026-05-04 19:43 | 54.87482 | -1.66679 | 10057 ft | 238 kts | 0° |
| 2026-05-04 19:43 | 54.89131 | -1.66452 | 9753 ft | 237 kts | 0° |
| 2026-05-04 19:44 | 54.90771 | -1.66228 | 9423 ft | 236 kts | 0° |
| 2026-05-04 19:44 | 54.92408 | -1.66003 | 9106 ft | 235 kts | 0° |
| 2026-05-04 19:44 | 54.94020 | -1.65782 | 8785 ft | 235 kts | 0° |
| 2026-05-04 19:44 | 54.95665 | -1.65555 | 8448 ft | 234 kts | 1° |
| 2026-05-04 19:45 | 54.97273 | -1.65335 | 8126 ft | 234 kts | 1° |
| 2026-05-04 19:45 | 54.98893 | -1.65116 | 7803 ft | 233 kts | 1° |
| 2026-05-04 19:45 | 55.00513 | -1.64895 | 7479 ft | 233 kts | 1° |
| 2026-05-04 19:45 | 55.02136 | -1.64596 | 7145 ft | 235 kts | 10° |
| 2026-05-04 19:46 | 55.03650 | -1.63486 | 6834 ft | 239 kts | 32° |
| 2026-05-04 19:46 | 55.04864 | -1.61483 | 6490 ft | 243 kts | 54° |
| 2026-05-04 19:46 | 55.05601 | -1.58841 | 6143 ft | 243 kts | 76° |
| 2026-05-04 19:46 | 55.05923 | -1.55954 | 5820 ft | 242 kts | 80° |
| 2026-05-04 19:47 | 55.06226 | -1.53077 | 5519 ft | 240 kts | 80° |
| 2026-05-04 19:47 | 55.06527 | -1.50225 | 5228 ft | 238 kts | 79° |
| 2026-05-04 19:47 | 55.06822 | -1.47435 | 4945 ft | 236 kts | 79° |
| 2026-05-04 19:47 | 55.07123 | -1.44597 | 4649 ft | 234 kts | 79° |
| 2026-05-04 19:48 | 55.07318 | -1.42757 | 4543 ft | 230 kts | 79° |
| 2026-05-04 19:48 | 55.07606 | -1.40050 | 4411 ft | 223 kts | 78° |
| 2026-05-04 19:48 | 55.08106 | -1.36655 | 4225 ft | 213 kts | 57° |
| 2026-05-04 19:48 | 55.09124 | -1.34929 | 4090 ft | 200 kts | 22° |
| 2026-05-04 19:49 | 55.10007 | -1.34468 | 3974 ft | 194 kts | 1° |
| 2026-05-04 19:49 | 55.11174 | -1.34888 | 3782 ft | 186 kts | 324° |
| 2026-05-04 19:49 | 55.11912 | -1.36653 | 3559 ft | 184 kts | 282° |
| 2026-05-04 19:49 | 55.11740 | -1.38838 | 3310 ft | 188 kts | 246° |
| 2026-05-04 19:50 | 55.11174 | -1.40917 | 3060 ft | 190 kts | 249° |
| 2026-05-04 19:50 | 55.10627 | -1.43026 | 2823 ft | 191 kts | 249° |
| 2026-05-04 19:50 | 55.10075 | -1.45144 | 2591 ft | 191 kts | 249° |
| 2026-05-04 19:50 | 55.09524 | -1.47244 | 2438 ft | 187 kts | 249° |
| 2026-05-04 19:51 | 55.08998 | -1.49242 | 2315 ft | 176 kts | 249° |
| 2026-05-04 19:51 | 55.08504 | -1.51121 | 2216 ft | 165 kts | 249° |
| 2026-05-04 19:51 | 55.08034 | -1.52909 | 2070 ft | 159 kts | 249° |
| 2026-05-04 19:51 | 55.07577 | -1.54646 | 1885 ft | 155 kts | 249° |
| 2026-05-04 19:52 | 55.07135 | -1.56326 | 1691 ft | 150 kts | 250° |
| 2026-05-04 19:52 | 55.06710 | -1.57935 | 1496 ft | 143 kts | 249° |
| 2026-05-04 19:52 | 55.06300 | -1.59492 | 1301 ft | 140 kts | 249° |
| 2026-05-04 19:52 | 55.05891 | -1.61036 | 1096 ft | 140 kts | 248° |
| 2026-05-04 19:53 | 55.05489 | -1.62566 | 897 ft | 137 kts | 248° |
| 2026-05-04 19:53 | 55.05099 | -1.64084 | 746 ft | 136 kts | 247° |
| 2026-05-04 19:53 | 55.04702 | -1.65554 | 563 ft | 133 kts | 246° |
| 2026-05-04 19:53 | 55.04309 | -1.67008 | 361 ft | 132 kts | 246° |
| 2026-05-04 19:54 | 55.03934 | -1.68438 | 251 ft | 124 kts | 246° |
| 2026-05-04 19:54 | 55.03690 | -1.69358 | 256 ft | 42 kts | 245° |
| 2026-05-04 19:54 | 55.03599 | -1.69703 | 259 ft | 30 kts | 245° |
| 2026-05-04 19:54 | 55.03588 | -1.70040 | 262 ft | 27 kts | 271° |
| 2026-05-04 19:55 | 55.03596 | -1.70247 | 265 ft | 12 kts | 274° |
| 2026-05-04 19:55 | 55.03605 | -1.70397 | 267 ft | 13 kts | 285° |
| 2026-05-04 19:55 | 55.03679 | -1.70442 | 267 ft | 13 kts | 9° |
| 2026-05-04 19:55 | 55.03765 | -1.70430 | 267 ft | 12 kts | 349° |
| 2026-05-04 19:56 | 55.03799 | -1.70537 | 267 ft | 12 kts | 280° |
| 2026-05-04 19:56 | 55.03806 | -1.70688 | 267 ft | 10 kts | 274° |
| 2026-05-04 19:56 | 55.03794 | -1.70754 | 267 ft | 4 kts | 194° |
| 2026-05-04 19:56 | 55.03768 | -1.70756 | 267 ft | 3 kts | 184° |
| 2026-05-04 19:57 | 55.03747 | -1.70759 | 267 ft | 3 kts | 184° |
| 2026-05-04 19:57 | 55.03732 | -1.70761 | 267 ft | 0 kts | 184° |